Time;durP1;ratioP1;P1;durP2;ratioP2;P2;SDS_P1;SDS_P2;PMS_P1;PMS_P2;Temp;Humidity;BMP_temperature;BMP_pressure;BME280_temperature;BME280_humidity;BME280_pressure;Samples;Min_cycle;Max_cycle;Signal;HPM_P1;HPM_P2
2022/12/01 00:00:46;;;;;;;12.10;6.88;;;9.60;66.70;;;;;;4982446;28;20509;-48
2022/12/01 00:03:13;;;;;;;10.43;6.13;;;9.60;66.70;;;;;;4985650;28;20062;-46
2022/12/01 00:05:40;;;;;;;9.73;5.78;;;9.60;66.70;;;;;;4984707;28;20061;-48
2022/12/01 00:08:08;;;;;;;10.73;6.70;;;9.60;66.80;;;;;;4984696;28;20054;-45
2022/12/01 00:10:34;;;;;;;12.55;6.70;;;9.60;66.80;;;;;;4980988;28;20065;-47
2022/12/01 00:13:04;;;;;;;10.70;5.75;;;9.60;66.80;;;;;;4983839;28;20050;-47
2022/12/01 00:15:33;;;;;;;9.55;5.75;;;9.60;66.90;;;;;;4982715;28;20061;-50
2022/12/01 00:18:04;;;;;;;10.00;6.03;;;9.60;66.80;;;;;;4983169;28;20042;-47
2022/12/01 00:20:33;;;;;;;10.38;6.00;;;9.60;66.80;;;;;;4982240;28;20065;-47
2022/12/01 00:23:00;;;;;;;9.98;6.40;;;9.70;66.80;;;;;;4983472;28;20062;-49
2022/12/01 00:25:28;;;;;;;10.43;6.18;;;9.70;66.80;;;;;;4983249;28;20050;-47
2022/12/01 00:27:56;;;;;;;10.38;6.28;;;9.70;66.80;;;;;;4983711;28;20061;-47
2022/12/01 00:30:23;;;;;;;13.35;6.88;;;9.70;66.80;;;;;;4981998;28;20649;-46
2022/12/01 00:32:50;;;;;;;10.48;5.80;;;9.70;66.70;;;;;;4985325;28;20054;-44
2022/12/01 00:35:19;;;;;;;13.57;7.55;;;9.70;66.70;;;;;;4982110;28;20501;-44
2022/12/01 00:37:46;;;;;;;10.70;6.95;;;9.70;66.60;;;;;;4982982;28;20050;-45
2022/12/01 00:40:14;;;;;;;16.02;7.78;;;9.70;66.50;;;;;;4981581;28;20054;-50
2022/12/01 00:42:41;;;;;;;13.32;7.55;;;9.70;66.30;;;;;;4983110;28;20050;-47
2022/12/01 00:45:10;;;;;;;13.20;7.07;;;9.70;66.20;;;;;;4982690;28;20047;-43
2022/12/01 00:47:37;;;;;;;13.00;7.35;;;9.70;66.20;;;;;;4983038;28;20058;-48
2022/12/01 00:50:05;;;;;;;11.52;6.95;;;9.70;66.30;;;;;;4979905;28;21866;-48
2022/12/01 00:52:34;;;;;;;11.40;6.45;;;9.60;66.30;;;;;;4981546;28;20050;-47
2022/12/01 00:55:01;;;;;;;12.88;6.50;;;9.60;66.20;;;;;;4981137;28;20414;-46
2022/12/01 00:57:28;;;;;;;12.65;6.30;;;9.60;66.20;;;;;;4982848;28;20066;-47
2022/12/01 00:59:55;;;;;;;11.30;5.97;;;9.60;66.30;;;;;;4982935;28;20697;-48
2022/12/01 01:02:22;;;;;;;11.48;6.13;;;9.60;66.40;;;;;;4982864;28;20073;-45
2022/12/01 01:04:50;;;;;;;13.27;6.40;;;9.60;66.40;;;;;;4984518;28;20058;-43
2022/12/01 01:07:17;;;;;;;11.32;6.22;;;9.60;66.50;;;;;;4982972;28;20069;-48
2022/12/01 01:09:45;;;;;;;9.30;5.97;;;9.60;66.50;;;;;;4982315;28;20070;-45
2022/12/01 01:12:13;;;;;;;10.18;6.15;;;9.60;66.60;;;;;;4980533;28;20062;-44
2022/12/01 01:14:40;;;;;;;9.38;5.90;;;9.50;66.60;;;;;;4983761;28;20062;-45
2022/12/01 01:17:07;;;;;;;10.80;6.38;;;9.50;66.60;;;;;;4980697;28;20073;-46
2022/12/01 01:19:34;;;;;;;10.73;6.00;;;9.50;66.70;;;;;;4982277;28;20057;-48
2022/12/01 01:22:01;;;;;;;10.82;5.90;;;9.50;66.70;;;;;;4981966;28;20058;-47
2022/12/01 01:24:29;;;;;;;9.57;5.50;;;9.50;66.80;;;;;;4981236;28;20516;-44
2022/12/01 01:26:57;;;;;;;8.38;5.55;;;9.50;66.80;;;;;;4981530;28;20406;-47
2022/12/01 01:29:25;;;;;;;12.43;6.07;;;9.50;66.80;;;;;;4981388;28;20051;-46
2022/12/01 01:31:52;;;;;;;11.43;6.43;;;9.50;66.90;;;;;;4980467;28;20426;-48
2022/12/01 01:34:19;;;;;;;11.43;6.45;;;9.50;66.90;;;;;;4984177;28;20423;-45
2022/12/01 01:36:46;;;;;;;12.80;6.47;;;9.50;66.90;;;;;;4981748;28;20065;-43
2022/12/01 01:39:14;;;;;;;11.57;5.95;;;9.50;67.00;;;;;;4982210;28;20049;-46
2022/12/01 01:41:41;;;;;;;10.65;5.50;;;9.50;67.00;;;;;;4981491;28;20065;-46
2022/12/01 01:44:41;;;;;;;8.50;5.68;;;9.50;67.10;;;;;;4983458;28;20047;-52
2022/12/01 01:47:10;;;;;;;10.63;5.80;;;9.50;67.20;;;;;;4982377;28;20061;-46
2022/12/01 01:49:38;;;;;;;11.10;5.88;;;9.40;67.20;;;;;;4983268;28;20058;-43
2022/12/01 01:52:05;;;;;;;9.40;5.60;;;9.50;67.30;;;;;;4979199;28;20054;-46
2022/12/01 01:54:35;;;;;;;9.55;6.32;;;9.40;67.40;;;;;;4980712;28;20089;-45
2022/12/01 01:57:06;;;;;;;11.57;6.15;;;9.40;67.40;;;;;;4981954;28;20046;-45
2022/12/01 01:59:37;;;;;;;11.18;5.95;;;9.40;67.40;;;;;;4983448;28;20051;-48
2022/12/01 02:02:07;;;;;;;10.15;6.05;;;9.40;67.40;;;;;;4981065;28;20050;-48
2022/12/01 02:04:59;;;;;;;8.10;5.43;;;9.40;67.50;;;;;;4981392;28;20061;-48
2022/12/01 02:07:26;;;;;;;9.27;5.93;;;9.40;67.80;;;;;;4980420;28;20061;-46
2022/12/01 02:09:54;;;;;;;9.45;5.63;;;9.40;67.80;;;;;;4982200;28;20074;-45
2022/12/01 02:12:36;;;;;;;8.90;5.72;;;9.40;67.80;;;;;;4980978;28;20050;-47
2022/12/01 02:15:15;;;;;;;11.05;6.93;;;9.40;67.80;;;;;;4981983;28;20065;-49
2022/12/01 02:17:50;;;;;;;9.75;6.13;;;9.40;67.80;;;;;;4983856;28;20078;-47
2022/12/01 02:20:54;;;;;;;11.75;6.00;;;9.40;67.80;;;;;;4983823;28;20410;-49
2022/12/01 02:23:41;;;;;;;9.32;5.75;;;9.40;67.80;;;;;;4985771;28;20616;-50
2022/12/01 02:26:24;;;;;;;9.07;5.95;;;9.40;67.80;;;;;;4986385;28;20058;-46
2022/12/01 02:29:19;;;;;;;10.27;6.20;;;9.30;67.70;;;;;;4985149;28;20049;-44
2022/12/01 02:31:57;;;;;;;9.52;6.38;;;9.30;67.70;;;;;;4981328;28;20063;-45
2022/12/01 02:34:30;;;;;;;8.48;6.10;;;9.30;67.90;;;;;;4985933;28;20062;-54
2022/12/01 02:37:05;;;;;;;11.90;6.65;;;9.30;68.10;;;;;;4982094;28;20494;-49
2022/12/01 02:39:37;;;;;;;10.20;6.63;;;9.20;68.10;;;;;;4982720;28;20061;-43
2022/12/01 02:42:09;;;;;;;14.93;6.47;;;9.20;68.20;;;;;;4983747;28;20054;-47
2022/12/01 02:44:41;;;;;;;12.02;6.93;;;9.30;68.30;;;;;;4986524;28;20054;-47
2022/12/01 02:47:14;;;;;;;10.38;6.72;;;9.20;68.30;;;;;;4986296;28;20070;-48
2022/12/01 02:49:46;;;;;;;12.10;7.45;;;9.20;68.30;;;;;;4984107;28;20065;-46
2022/12/01 02:52:15;;;;;;;12.10;7.47;;;9.20;68.40;;;;;;4982704;28;20674;-45
2022/12/01 02:54:45;;;;;;;11.73;7.53;;;9.10;68.40;;;;;;4984034;28;20490;-48
2022/12/01 02:57:14;;;;;;;14.73;7.57;;;9.10;68.50;;;;;;4984735;28;20065;-46
2022/12/01 02:59:45;;;;;;;14.20;7.32;;;9.10;68.60;;;;;;4985816;28;20536;-47
2022/12/01 03:02:23;;;;;;;12.02;7.93;;;9.10;68.80;;;;;;4984647;28;20406;-50
2022/12/01 03:04:57;;;;;;;10.77;7.32;;;9.10;68.80;;;;;;4986932;28;20498;-45
2022/12/01 03:07:38;;;;;;;;;;;9.10;68.80;;;;;;4986672;28;20061;-47
2022/12/01 03:10:13;;;;;;;11.68;7.72;;;9.20;69.00;;;;;;4981862;28;19929;-48
2022/12/01 03:12:54;;;;;;;14.65;7.80;;;9.10;68.60;;;;;;4985485;28;20072;-45
2022/12/01 03:15:31;;;;;;;14.90;7.90;;;9.10;68.60;;;;;;4983027;28;20065;-47
2022/12/01 03:18:05;;;;;;;12.70;8.20;;;9.10;68.70;;;;;;4984170;28;20058;-46
2022/12/01 03:20:34;;;;;;;;;;;9.10;68.90;;;;;;4983362;28;20054;-50
2022/12/01 03:23:08;;;;;;;11.70;8.05;;;9.10;68.90;;;;;;4983729;28;20400;-47
2022/12/01 03:25:37;;;;;;;11.75;7.95;;;9.10;68.80;;;;;;4986475;28;20054;-50
2022/12/01 03:28:06;;;;;;;11.75;7.93;;;9.10;68.90;;;;;;4985924;28;20057;-44
2022/12/01 03:30:36;;;;;;;13.50;8.27;;;9.10;69.10;;;;;;4981101;28;20050;-48
2022/12/01 03:33:10;;;;;;;12.45;7.85;;;9.10;69.20;;;;;;4984676;28;20050;-48
2022/12/01 03:35:42;;;;;;;13.10;8.32;;;9.10;69.30;;;;;;4985644;28;20057;-57
2022/12/01 03:38:13;;;;;;;13.77;8.68;;;9.10;69.40;;;;;;4982275;28;20061;-56
2022/12/01 03:40:41;;;;;;;13.32;8.20;;;9.10;69.30;;;;;;4982049;28;20050;-57
2022/12/01 03:43:13;;;;;;;13.20;8.60;;;9.10;69.30;;;;;;4984814;28;20062;-57
2022/12/01 03:45:47;;;;;;;16.83;9.13;;;9.10;69.30;;;;;;4982964;28;20540;-56
2022/12/01 03:48:16;;;;;;;14.85;8.68;;;9.10;69.30;;;;;;4984376;28;20054;-57
2022/12/01 03:50:53;;;;;;;14.18;7.97;;;9.10;69.20;;;;;;4981492;28;20050;-57
2022/12/01 03:53:25;;;;;;;14.52;8.38;;;9.10;69.20;;;;;;4978627;28;20057;-57
2022/12/01 03:55:58;;;;;;;15.63;8.63;;;9.10;69.20;;;;;;4979465;28;20054;-56
2022/12/01 03:58:32;;;;;;;18.60;9.77;;;9.10;69.20;;;;;;4981580;28;20054;-55
2022/12/01 04:01:01;;;;;;;16.25;9.38;;;9.10;69.30;;;;;;4981547;28;20046;-56
2022/12/01 04:03:30;;;;;;;13.25;8.38;;;9.10;69.30;;;;;;4982108;28;20521;-53
2022/12/01 04:05:58;;;;;;;15.18;9.40;;;9.20;69.40;;;;;;4984329;28;20823;-58
2022/12/01 04:08:25;;;;;;;16.40;9.77;;;9.20;69.50;;;;;;4983090;28;20055;-56
2022/12/01 04:10:52;;;;;;;16.98;9.82;;;9.20;69.40;;;;;;4975807;28;20054;-57
2022/12/01 04:13:21;;;;;;;15.85;9.65;;;9.20;69.40;;;;;;4985338;28;20502;-57
2022/12/01 04:15:50;;;;;;;16.83;10.20;;;9.20;69.30;;;;;;4983773;28;20073;-57
2022/12/01 04:18:18;;;;;;;19.13;10.13;;;9.20;69.20;;;;;;4985270;28;20520;-58
2022/12/01 04:20:48;;;;;;;19.55;10.60;;;9.20;69.20;;;;;;4982545;28;20050;-56
2022/12/01 04:23:58;;;;;;;14.35;9.60;;;9.20;69.20;;;;;;4981380;28;20054;-54
2022/12/01 04:26:04;;;;;;;17.88;10.38;;;9.20;69.20;;;;;;4980463;28;20062;-53
2022/12/01 04:28:31;;;;;;;20.08;10.65;;;9.20;69.10;;;;;;4985034;28;20062;-57
2022/12/01 04:30:59;;;;;;;17.08;10.25;;;9.20;68.90;;;;;;4983592;28;20506;-57
2022/12/01 04:33:26;;;;;;;20.10;10.65;;;9.20;68.90;;;;;;4983481;28;20058;-56
2022/12/01 04:35:58;;;;;;;18.85;11.10;;;9.10;69.00;;;;;;4984733;28;20057;-57
2022/12/01 04:38:25;;;;;;;18.00;9.82;;;9.10;69.10;;;;;;4982179;28;20054;-58
2022/12/01 04:40:53;;;;;;;20.63;11.13;;;9.10;69.30;;;;;;4981832;28;20046;-56
2022/12/01 04:43:20;;;;;;;17.27;10.55;;;9.00;69.40;;;;;;4984970;28;20058;-56
2022/12/01 04:45:47;;;;;;;18.60;9.98;;;9.00;69.40;;;;;;4983282;28;20050;-56
2022/12/01 04:48:14;;;;;;;17.30;10.52;;;9.10;69.50;;;;;;4983463;28;20065;-57
2022/12/01 04:50:41;;;;;;;17.20;10.27;;;9.10;69.60;;;;;;4982244;28;20057;-56
2022/12/01 04:53:10;;;;;;;26.00;11.98;;;9.10;69.80;;;;;;4982859;28;20054;-56
2022/12/01 04:55:38;;;;;;;19.15;11.50;;;9.10;69.70;;;;;;4982256;28;20747;-57
2022/12/01 04:58:05;;;;;;;18.05;9.90;;;9.10;69.60;;;;;;4983222;28;20430;-52
2022/12/01 05:00:33;;;;;;;16.60;10.25;;;9.10;69.50;;;;;;4982375;28;20046;-56
2022/12/01 05:03:00;;;;;;;21.52;11.32;;;9.10;69.50;;;;;;4982302;28;20065;-56
2022/12/01 05:05:28;;;;;;;18.42;10.70;;;9.20;69.50;;;;;;4981361;28;20521;-56
2022/12/01 05:07:55;;;;;;;21.13;11.05;;;9.20;69.50;;;;;;4982867;28;20383;-57
2022/12/01 05:10:23;;;;;;;20.80;10.38;;;9.20;69.40;;;;;;4981707;28;20682;-57
2022/12/01 05:12:51;;;;;;;17.65;11.18;;;9.30;69.50;;;;;;4983195;28;20064;-54
2022/12/01 05:15:18;;;;;;;18.58;11.07;;;9.20;69.30;;;;;;4980824;28;20058;-53
2022/12/01 05:17:45;;;;;;;22.63;11.65;;;9.30;69.20;;;;;;4979262;28;20053;-57
2022/12/01 05:23:04;;;;;;;18.17;10.50;;;9.30;69.00;;;;;;4988433;28;20053;-55
2022/12/01 05:25:33;;;;;;;21.25;11.77;;;9.30;68.90;;;;;;4983025;28;20050;-58
2022/12/01 05:28:00;;;;;;;19.83;11.15;;;9.30;68.70;;;;;;4984176;28;20062;-55
2022/12/01 05:30:27;;;;;;;20.17;11.85;;;9.30;68.80;;;;;;4980562;28;20061;-55
2022/12/01 05:32:55;;;;;;;20.70;11.30;;;9.30;68.70;;;;;;4982390;28;20065;-53
2022/12/01 05:35:22;;;;;;;21.10;12.30;;;9.30;68.70;;;;;;4982947;28;20058;-55
2022/12/01 05:37:49;;;;;;;18.92;11.05;;;9.30;68.60;;;;;;4981969;28;20061;-57
2022/12/01 05:40:17;;;;;;;22.23;11.95;;;9.30;68.70;;;;;;4983050;28;20394;-54
2022/12/01 05:42:45;;;;;;;21.77;12.20;;;9.30;68.70;;;;;;4976869;28;20050;-53
2022/12/01 05:45:12;;;;;;;19.55;11.32;;;9.30;68.50;;;;;;4978064;28;20054;-57
2022/12/01 05:47:40;;;;;;;20.98;11.77;;;9.30;68.60;;;;;;4979957;28;20054;-57
2022/12/01 05:50:08;;;;;;;22.27;11.82;;;9.30;68.50;;;;;;4981349;28;20050;-56
2022/12/01 05:52:36;;;;;;;23.88;11.50;;;9.30;68.50;;;;;;4979067;28;20065;-56
2022/12/01 05:55:04;;;;;;;24.02;12.48;;;9.30;68.50;;;;;;4983016;28;20486;-57
2022/12/01 05:57:32;;;;;;;28.00;13.23;;;9.30;68.50;;;;;;4983351;28;20054;-57
2022/12/01 06:00:01;;;;;;;23.70;13.00;;;9.30;68.30;;;;;;4981839;28;20423;-49
2022/12/01 06:02:28;;;;;;;25.15;13.00;;;9.30;68.10;;;;;;4980207;28;20050;-57
2022/12/01 06:04:55;;;;;;;19.60;12.20;;;9.20;68.10;;;;;;4976723;28;20050;-57
2022/12/01 06:07:24;;;;;;;24.60;13.25;;;9.20;68.20;;;;;;4980382;28;20058;-57
2022/12/01 06:09:52;;;;;;;21.98;12.75;;;9.20;68.30;;;;;;4980545;28;20050;-54
2022/12/01 06:12:20;;;;;;;25.08;13.25;;;9.20;68.50;;;;;;4979797;28;20093;-58
2022/12/01 06:14:47;;;;;;;23.52;13.98;;;9.20;68.60;;;;;;4979372;28;20050;-58
2022/12/01 06:17:16;;;;;;;25.00;13.82;;;9.10;68.70;;;;;;4980503;28;20058;-57
2022/12/01 06:19:43;;;;;;;31.50;14.60;;;9.10;68.70;;;;;;4970532;28;20046;-55
2022/12/01 06:22:10;;;;;;;27.65;14.00;;;9.10;68.80;;;;;;4973193;28;20054;-54
2022/12/01 06:24:37;;;;;;;25.13;14.57;;;9.10;68.90;;;;;;4974162;28;20148;-56
2022/12/01 06:27:05;;;;;;;25.95;14.82;;;9.10;69.00;;;;;;4982536;28;20061;-57
2022/12/01 06:29:32;;;;;;;25.08;14.48;;;9.10;69.10;;;;;;4979255;28;20540;-58
2022/12/01 06:31:59;;;;;;;28.73;15.95;;;9.10;69.20;;;;;;4977672;28;20055;-54
2022/12/01 06:34:28;;;;;;;27.38;15.73;;;9.10;70.00;;;;;;4969879;28;20506;-57
2022/12/01 06:36:55;;;;;;;26.08;14.95;;;9.10;69.30;;;;;;4969536;28;20061;-55
2022/12/01 06:39:22;;;;;;;30.17;16.27;;;9.10;69.30;;;;;;4971322;28;20058;-57
2022/12/01 06:41:50;;;;;;;25.83;15.57;;;9.00;69.20;;;;;;4976721;28;20483;-58
2022/12/01 06:44:17;;;;;;;32.65;17.55;;;9.10;69.20;;;;;;4977441;28;20058;-57
2022/12/01 06:46:44;;;;;;;33.50;17.98;;;9.10;69.10;;;;;;4980535;28;20057;-57
2022/12/01 06:49:12;;;;;;;27.77;15.13;;;9.10;69.10;;;;;;4977623;28;20054;-51
2022/12/01 06:51:40;;;;;;;36.15;18.55;;;9.10;69.00;;;;;;4979863;28;20502;-56
2022/12/01 06:54:07;;;;;;;34.10;17.42;;;9.10;68.90;;;;;;4980974;28;20054;-57
2022/12/01 06:56:39;;;;;;;31.92;15.15;;;9.10;68.90;;;;;;4978788;28;20062;-58
2022/12/01 06:59:06;;;;;;;33.13;17.55;;;9.10;68.80;;;;;;4981983;28;20050;-55
2022/12/01 07:01:33;;;;;;;32.80;17.00;;;9.10;68.70;;;;;;4974556;28;22328;-56
2022/12/01 07:04:01;;;;;;;30.77;17.02;;;9.20;68.80;;;;;;4980551;28;20050;-56
2022/12/01 07:06:30;;;;;;;31.77;17.58;;;9.10;68.70;;;;;;4983363;28;20384;-54
2022/12/01 07:08:58;;;;;;;31.60;17.45;;;9.20;68.70;;;;;;4980337;28;20054;-57
2022/12/01 07:11:25;;;;;;;33.65;16.98;;;9.20;68.60;;;;;;4976727;28;20058;-55
2022/12/01 07:13:55;;;;;;;34.42;18.58;;;9.20;68.60;;;;;;4973309;28;20068;-57
2022/12/01 07:16:23;;;;;;;31.08;16.67;;;9.20;68.50;;;;;;4974357;28;20065;-55
2022/12/01 07:18:51;;;;;;;33.08;18.08;;;9.30;68.40;;;;;;4971121;28;20060;-54
2022/12/01 07:21:18;;;;;;;34.58;18.35;;;9.20;68.20;;;;;;4974154;28;20058;-57
2022/12/01 07:23:45;;;;;;;31.75;17.55;;;9.20;68.10;;;;;;4973409;28;20054;-57
2022/12/01 07:26:16;;;;;;;33.45;17.98;;;9.20;68.00;;;;;;4978252;28;20490;-56
2022/12/01 07:28:44;;;;;;;31.02;16.40;;;9.20;67.90;;;;;;4974736;28;20414;-56
2022/12/01 07:31:13;;;;;;;35.67;18.30;;;9.20;67.90;;;;;;4971161;28;20050;-55
2022/12/01 07:33:40;;;;;;;34.83;19.30;;;9.20;67.90;;;;;;4973818;28;20410;-57
2022/12/01 07:36:10;;;;;;;31.30;16.75;;;9.20;67.90;;;;;;4980957;28;20484;-57
2022/12/01 07:38:38;;;;;;;31.15;16.65;;;9.20;67.70;;;;;;4978211;28;20490;-56
2022/12/01 07:41:07;;;;;;;32.10;17.55;;;9.20;67.80;;;;;;4980448;28;20387;-55
2022/12/01 07:43:36;;;;;;;38.40;19.52;;;9.20;67.80;;;;;;4984126;28;20058;-57
2022/12/01 07:46:08;;;;;;;32.65;17.77;;;9.20;67.70;;;;;;4982965;28;20406;-56
2022/12/01 07:48:37;;;;;;;32.35;18.02;;;9.20;67.60;;;;;;4981140;28;20054;-54
2022/12/01 07:51:04;;;;;;;31.25;17.50;;;9.20;67.60;;;;;;4980054;28;20482;-57
2022/12/01 07:53:32;;;;;;;33.53;16.83;;;9.20;67.70;;;;;;4983564;28;20058;-58
2022/12/01 07:55:59;;;;;;;33.83;18.05;;;9.20;67.70;;;;;;4977457;28;20058;-57
2022/12/01 07:58:27;;;;;;;32.33;18.25;;;9.20;67.80;;;;;;4975748;28;20058;-57
2022/12/01 08:00:56;;;;;;;33.95;17.50;;;9.20;67.90;;;;;;4976410;28;20046;-56
2022/12/01 08:03:23;;;;;;;32.53;17.40;;;9.20;67.90;;;;;;4984017;28;20062;-52
2022/12/01 08:05:57;;;;;;;30.05;16.92;;;9.20;68.00;;;;;;4985690;28;20058;-57
2022/12/01 08:08:24;;;;;;;34.00;17.77;;;9.30;68.10;;;;;;4981170;28;20065;-53
2022/12/01 08:10:51;;;;;;;34.10;17.80;;;9.20;67.80;;;;;;4974299;28;20058;-51
2022/12/01 08:13:19;;;;;;;30.73;17.02;;;9.30;67.70;;;;;;4970034;28;20054;-55
2022/12/01 08:15:47;;;;;;;33.17;17.55;;;9.30;67.70;;;;;;4984833;28;20057;-56
2022/12/01 08:18:15;;;;;;;32.75;17.95;;;9.30;67.70;;;;;;4982380;28;20073;-57
2022/12/01 08:20:42;;;;;;;32.03;16.38;;;9.30;67.70;;;;;;4982038;28;20065;-57
2022/12/01 08:23:10;;;;;;;30.98;17.00;;;9.30;67.60;;;;;;4980563;28;20057;-58
2022/12/01 08:25:37;;;;;;;36.13;17.85;;;9.30;67.50;;;;;;4980125;28;20050;-57
2022/12/01 08:28:05;;;;;;;31.83;18.13;;;9.20;67.30;;;;;;4979886;28;20054;-57
2022/12/01 08:30:32;;;;;;;36.42;19.38;;;9.20;67.20;;;;;;4971913;28;20051;-51
2022/12/01 08:32:59;;;;;;;38.63;19.08;;;9.20;67.10;;;;;;4966302;28;20050;-55
2022/12/01 08:35:28;;;;;;;33.15;17.85;;;9.10;67.10;;;;;;4972314;28;20061;-54
2022/12/01 08:37:55;;;;;;;35.15;18.40;;;9.10;67.20;;;;;;4980080;28;20594;-57
2022/12/01 08:40:22;;;;;;;40.08;21.17;;;9.00;67.40;;;;;;4977389;28;21862;-58
2022/12/01 08:42:52;;;;;;;34.67;19.50;;;9.00;67.50;;;;;;4974310;28;20054;-57
2022/12/01 08:45:19;;;;;;;35.33;19.02;;;9.00;67.50;;;;;;4979273;28;20054;-56
2022/12/01 08:47:46;;;;;;;37.60;18.92;;;8.90;67.50;;;;;;4977345;28;20049;-57
2022/12/01 08:50:13;;;;;;;42.50;20.45;;;8.90;67.90;;;;;;4979065;28;20386;-58
2022/12/01 08:52:42;;;;;;;35.33;17.95;;;8.90;68.20;;;;;;4982760;28;20050;-57
2022/12/01 08:55:09;;;;;;;33.25;18.60;;;8.90;68.30;;;;;;4982088;28;20058;-53
2022/12/01 08:57:37;;;;;;;41.42;19.75;;;8.80;68.50;;;;;;4980340;28;20054;-57
2022/12/01 09:00:05;;;;;;;38.65;18.63;;;8.80;68.60;;;;;;4981587;28;20085;-56
2022/12/01 09:02:32;;;;;;;40.63;18.48;;;8.80;68.70;;;;;;4983140;28;20414;-57
2022/12/01 09:04:59;;;;;;;33.88;17.92;;;8.80;68.80;;;;;;4981216;28;20057;-58
2022/12/01 09:07:26;;;;;;;36.97;17.88;;;8.80;68.80;;;;;;4979430;28;20057;-55
2022/12/01 09:09:55;;;;;;;36.15;18.80;;;8.70;68.90;;;;;;4983067;28;20066;-58
2022/12/01 09:12:22;;;;;;;38.75;20.02;;;8.70;69.00;;;;;;4977410;28;20058;-57
2022/12/01 09:14:49;;;;;;;36.67;18.52;;;8.70;69.10;;;;;;4985183;28;20065;-58
2022/12/01 09:17:17;;;;;;;41.90;20.23;;;8.70;69.30;;;;;;4979600;28;20058;-57
2022/12/01 09:19:44;;;;;;;35.35;19.00;;;8.70;69.40;;;;;;4983087;28;20054;-55
2022/12/01 09:22:12;;;;;;;38.38;20.42;;;8.70;69.60;;;;;;4979727;28;20049;-54
2022/12/01 09:24:39;;;;;;;40.00;19.98;;;8.60;69.80;;;;;;4981494;28;20050;-52
2022/12/01 09:27:10;;;;;;;43.83;21.17;;;8.60;70.00;;;;;;4978083;28;20057;-57
2022/12/01 09:29:37;;;;;;;38.80;20.10;;;8.60;70.10;;;;;;4976767;28;20053;-55
2022/12/01 09:32:04;;;;;;;38.40;19.65;;;8.60;70.20;;;;;;4978385;28;20081;-57
2022/12/01 09:34:31;;;;;;;40.80;19.80;;;8.60;70.20;;;;;;4981653;28;20062;-58
2022/12/01 09:36:58;;;;;;;39.60;19.08;;;8.60;70.30;;;;;;4981536;28;20054;-58
2022/12/01 09:39:26;;;;;;;37.58;19.70;;;8.60;70.30;;;;;;4979369;28;20057;-57
2022/12/01 09:41:57;;;;;;;39.67;18.27;;;8.60;70.30;;;;;;4980877;28;20065;-57
2022/12/01 09:44:34;;;;;;;34.10;17.45;;;8.60;70.30;;;;;;4981873;28;20062;-55
2022/12/01 09:47:07;;;;;;;35.17;17.30;;;8.60;70.40;;;;;;4976102;28;20069;-57
2022/12/01 09:49:47;;;;;;;35.20;17.10;;;8.70;70.40;;;;;;4975065;28;20395;-57
2022/12/01 09:52:18;;;;;;;36.22;17.63;;;8.60;70.00;;;;;;4977866;28;20061;-57
2022/12/01 09:54:46;;;;;;;33.17;17.17;;;8.70;69.80;;;;;;4979962;28;20054;-54
2022/12/01 09:57:22;;;;;;;36.22;17.35;;;8.70;69.80;;;;;;4978698;28;20066;-56
2022/12/01 09:59:51;;;;;;;27.35;14.57;;;8.70;69.80;;;;;;4979573;28;20672;-53
2022/12/01 10:02:31;;;;;;;31.55;16.20;;;8.70;69.90;;;;;;4978117;28;20051;-56
2022/12/01 10:05:04;;;;;;;29.63;14.27;;;8.70;69.70;;;;;;4982804;28;20058;-57
2022/12/01 10:07:34;;;;;;;30.65;14.65;;;8.80;69.60;;;;;;4979691;28;20058;-57
2022/12/01 10:10:05;;;;;;;29.70;14.00;;;8.80;69.40;;;;;;4979864;28;20084;-57
2022/12/01 10:12:34;;;;;;;25.75;13.75;;;8.80;69.20;;;;;;4979180;28;20054;-58
2022/12/01 10:15:15;;;;;;;26.95;15.38;;;8.90;69.20;;;;;;4980005;28;20054;-57
2022/12/01 10:17:55;;;;;;;25.48;13.35;;;8.90;69.00;;;;;;4982534;28;20558;-53
2022/12/01 10:20:27;;;;;;;26.15;14.50;;;8.90;68.90;;;;;;4977645;28;20068;-56
2022/12/01 10:23:10;;;;;;;23.52;14.20;;;8.90;68.90;;;;;;4974845;28;20054;-55
2022/12/01 10:25:48;;;;;;;23.08;12.05;;;9.00;68.70;;;;;;4978734;28;20061;-57
2022/12/01 10:28:39;;;;;;;27.23;12.68;;;9.00;68.40;;;;;;4977347;28;20069;-51
2022/12/01 10:31:18;;;;;;;19.88;11.18;;;9.00;68.40;;;;;;4973752;28;20072;-55
2022/12/01 10:33:56;;;;;;;21.63;11.57;;;9.00;67.90;;;;;;4977073;28;20132;-58
2022/12/01 10:36:24;;;;;;;19.90;10.48;;;9.00;66.80;;;;;;4977303;28;20065;-57
2022/12/01 10:38:52;;;;;;;19.17;11.25;;;9.00;66.70;;;;;;4976350;28;20055;-54
2022/12/01 10:41:21;;;;;;;18.58;10.35;;;9.00;66.70;;;;;;4987467;28;20062;-54
2022/12/01 10:43:51;;;;;;;18.63;10.40;;;8.90;66.60;;;;;;4986015;28;20529;-57
2022/12/01 10:46:25;;;;;;;24.02;10.20;;;9.00;66.90;;;;;;4986977;28;20486;-57
2022/12/01 10:48:54;;;;;;;;;;;9.00;66.30;;;;;;4986365;28;20046;-55
2022/12/01 10:51:22;;;;;;;16.60;8.77;;;9.00;66.10;;;;;;4985329;28;19925;-58
2022/12/01 10:53:50;;;;;;;16.35;9.77;;;9.00;66.00;;;;;;4985284;28;20050;-53
2022/12/01 10:56:20;;;;;;;15.18;8.90;;;9.00;65.90;;;;;;4987024;28;20058;-56
2022/12/01 10:58:50;;;;;;;13.93;8.43;;;9.00;65.90;;;;;;4983925;28;20062;-54
2022/12/01 11:01:22;;;;;;;16.48;8.35;;;9.00;65.80;;;;;;4983298;28;20054;-58
2022/12/01 11:03:52;;;;;;;16.08;7.82;;;9.00;65.20;;;;;;4982313;28;20051;-57
2022/12/01 11:06:25;;;;;;;13.38;8.55;;;9.00;65.20;;;;;;4983803;28;20478;-58
2022/12/01 11:08:55;;;;;;;11.30;7.53;;;9.00;64.40;;;;;;4981533;28;20065;-59
2022/12/01 11:11:34;;;;;;;14.00;7.35;;;9.00;64.40;;;;;;4980992;28;20062;-57
2022/12/01 11:14:06;;;;;;;12.70;7.68;;;9.00;63.90;;;;;;4982410;28;20057;-55
2022/12/01 11:16:44;;;;;;;13.20;7.72;;;9.00;64.10;;;;;;4981962;28;20054;-57
2022/12/01 11:19:28;;;;;;;13.30;7.88;;;9.10;64.40;;;;;;4985403;28;20065;-58
2022/12/01 11:21:57;;;;;;;14.32;8.05;;;9.10;64.40;;;;;;4979867;28;20061;-56
2022/12/01 11:24:41;;;;;;;14.32;8.38;;;9.20;64.30;;;;;;4979758;28;20054;-56
2022/12/01 11:27:18;;;;;;;14.60;8.60;;;9.20;63.90;;;;;;4986091;28;20494;-57
2022/12/01 11:29:47;;;;;;;15.63;8.98;;;9.20;63.80;;;;;;4982421;28;20062;-56
2022/12/01 11:32:21;;;;;;;19.15;9.90;;;9.30;63.80;;;;;;4979091;28;20075;-57
2022/12/01 11:34:52;;;;;;;;;;;9.30;63.50;;;;;;4983696;28;20057;-48
2022/12/01 11:37:22;;;;;;;13.88;8.30;;;9.40;63.60;;;;;;4983896;28;20293;-55
2022/12/01 11:39:51;;;;;;;18.27;10.73;;;9.40;63.50;;;;;;4984606;28;20054;-53
2022/12/01 11:42:24;;;;;;;19.90;10.35;;;9.40;63.40;;;;;;4984017;28;20062;-57
2022/12/01 11:44:54;;;;;;;19.73;11.00;;;9.50;62.20;;;;;;4984727;28;20422;-57
2022/12/01 11:47:25;;;;;;;20.05;10.82;;;9.40;61.80;;;;;;4984582;28;20505;-58
2022/12/01 11:49:56;;;;;;;19.95;10.02;;;9.40;61.80;;;;;;4985232;28;20066;-58
2022/12/01 11:52:28;;;;;;;19.73;10.48;;;9.50;62.30;;;;;;4984844;28;20561;-57
2022/12/01 11:54:59;;;;;;;18.42;10.57;;;9.50;61.70;;;;;;4985154;28;20061;-57
2022/12/01 11:57:27;;;;;;;19.35;11.27;;;9.50;62.10;;;;;;4985934;28;20057;-56
2022/12/01 11:59:55;;;;;;;20.88;12.05;;;9.50;62.30;;;;;;4984671;28;20054;-56
2022/12/01 12:02:35;;;;;;;22.50;11.65;;;9.50;62.10;;;;;;4984245;28;20514;-57
2022/12/01 12:05:48;;;;;;;21.55;11.93;;;9.50;61.80;;;;;;4984601;28;20046;-51
2022/12/01 12:08:28;;;;;;;25.27;13.05;;;9.50;60.70;;;;;;4935782;28;20062;-56
2022/12/01 12:11:02;;;;;;;24.13;13.50;;;9.50;60.20;;;;;;4983563;28;20414;-58
2022/12/01 12:13:53;;;;;;;24.23;13.23;;;9.50;59.40;;;;;;4982804;28;20061;-57
2022/12/01 12:16:31;;;;;;;25.38;14.13;;;9.50;59.30;;;;;;4983837;28;20409;-58
2022/12/01 12:19:16;;;;;;;22.67;12.40;;;9.50;59.60;;;;;;4984689;28;20077;-57
2022/12/01 12:22:05;;;;;;;23.88;13.40;;;9.50;59.80;;;;;;4983738;28;20054;-57
2022/12/01 12:24:47;;;;;;;25.60;14.00;;;9.50;59.30;;;;;;4984122;28;20058;-57
2022/12/01 12:27:24;;;;;;;25.02;13.68;;;9.50;59.20;;;;;;4983951;28;20058;-58
2022/12/01 12:30:03;;;;;;;25.30;13.40;;;9.40;59.20;;;;;;4983612;28;20073;-57
2022/12/01 12:33:18;;;;;;;26.60;14.80;;;9.50;59.30;;;;;;4983794;28;20061;-57
2022/12/01 12:35:54;;;;;;;27.65;14.30;;;9.40;58.80;;;;;;4919811;29;20781;-57
2022/12/01 12:38:36;;;;;;;29.58;16.13;;;9.50;58.80;;;;;;4972341;28;20441;-57
2022/12/01 12:41:16;;;;;;;29.90;15.93;;;9.40;58.60;;;;;;4978092;28;20054;-56
2022/12/01 12:43:56;;;;;;;35.53;17.48;;;9.40;58.80;;;;;;4983065;28;20057;-57
2022/12/01 12:46:33;;;;;;;28.58;15.68;;;9.40;58.50;;;;;;4984932;28;20502;-52
2022/12/01 12:49:17;;;;;;;31.85;16.10;;;9.50;58.90;;;;;;4984443;28;20054;-57
2022/12/01 12:51:49;;;;;;;35.17;16.90;;;9.50;58.70;;;;;;4983379;28;20062;-56
2022/12/01 12:54:24;;;;;;;29.20;14.85;;;9.50;58.80;;;;;;4983985;28;20055;-57
2022/12/01 12:56:57;;;;;;;31.17;16.77;;;9.50;58.70;;;;;;4984875;28;20524;-54
2022/12/01 12:59:47;;;;;;;31.25;16.45;;;9.50;58.70;;;;;;4983999;28;20129;-58
2022/12/01 13:02:19;;;;;;;31.48;15.88;;;9.50;58.70;;;;;;4976787;28;20054;-57
2022/12/01 13:04:52;;;;;;;35.58;17.50;;;9.50;58.90;;;;;;4983068;28;20053;-57